sensor_id;sensor_type;location;lat;lon;timestamp;temperature;humidity
18777;DHT22;9517;51.174;4.160;2023-01-28T00:01:05;5.40;99.90
18777;DHT22;9517;51.174;4.160;2023-01-28T00:03:33;5.40;99.90
18777;DHT22;9517;51.174;4.160;2023-01-28T00:06:02;5.40;99.90
18777;DHT22;9517;51.174;4.160;2023-01-28T00:08:29;5.30;99.90
18777;DHT22;9517;51.174;4.160;2023-01-28T00:10:59;5.40;99.90
18777;DHT22;9517;51.174;4.160;2023-01-28T00:13:27;5.30;99.90
18777;DHT22;9517;51.174;4.160;2023-01-28T00:15:55;5.30;99.90
18777;DHT22;9517;51.174;4.160;2023-01-28T00:18:23;5.30;99.90
18777;DHT22;9517;51.174;4.160;2023-01-28T00:20:57;5.30;99.90
18777;DHT22;9517;51.174;4.160;2023-01-28T00:23:25;5.20;99.90
18777;DHT22;9517;51.174;4.160;2023-01-28T00:25:53;5.20;99.90
18777;DHT22;9517;51.174;4.160;2023-01-28T00:28:22;5.20;99.90
18777;DHT22;9517;51.174;4.160;2023-01-28T00:30:49;5.30;99.90
18777;DHT22;9517;51.174;4.160;2023-01-28T00:33:16;5.30;99.90
18777;DHT22;9517;51.174;4.160;2023-01-28T00:35:43;5.20;99.90
18777;DHT22;9517;51.174;4.160;2023-01-28T00:38:12;5.20;99.90
18777;DHT22;9517;51.174;4.160;2023-01-28T00:40:39;5.10;99.90
18777;DHT22;9517;51.174;4.160;2023-01-28T00:43:06;5.10;99.90
18777;DHT22;9517;51.174;4.160;2023-01-28T00:45:35;5.10;99.90
18777;DHT22;9517;51.174;4.160;2023-01-28T00:48:04;4.90;99.90
18777;DHT22;9517;51.174;4.160;2023-01-28T00:50:31;5.00;99.90
18777;DHT22;9517;51.174;4.160;2023-01-28T00:52:58;5.00;99.90
18777;DHT22;9517;51.174;4.160;2023-01-28T00:55:26;5.00;99.90
18777;DHT22;9517;51.174;4.160;2023-01-28T00:57:53;5.00;99.90
18777;DHT22;9517;51.174;4.160;2023-01-28T01:00:21;5.00;99.90
18777;DHT22;9517;51.174;4.160;2023-01-28T01:02:53;4.90;99.90
18777;DHT22;9517;51.174;4.160;2023-01-28T01:05:20;5.00;99.90
18777;DHT22;9517;51.174;4.160;2023-01-28T01:07:47;4.80;99.90
18777;DHT22;9517;51.174;4.160;2023-01-28T01:10:17;4.80;99.90
18777;DHT22;9517;51.174;4.160;2023-01-28T01:12:45;4.90;99.90
18777;DHT22;9517;51.174;4.160;2023-01-28T01:15:13;4.80;99.90
18777;DHT22;9517;51.174;4.160;2023-01-28T01:17:42;4.90;99.90
18777;DHT22;9517;51.174;4.160;2023-01-28T01:20:15;4.90;99.90
18777;DHT22;9517;51.174;4.160;2023-01-28T01:22:42;4.80;99.90
18777;DHT22;9517;51.174;4.160;2023-01-28T01:25:11;4.70;99.90
18777;DHT22;9517;51.174;4.160;2023-01-28T01:27:39;4.80;99.90
18777;DHT22;9517;51.174;4.160;2023-01-28T01:30:07;4.90;99.90
18777;DHT22;9517;51.174;4.160;2023-01-28T01:32:35;4.80;99.90
18777;DHT22;9517;51.174;4.160;2023-01-28T01:35:06;4.60;99.90
18777;DHT22;9517;51.174;4.160;2023-01-28T01:37:36;4.50;99.90
18777;DHT22;9517;51.174;4.160;2023-01-28T01:40:04;4.50;99.90
18777;DHT22;9517;51.174;4.160;2023-01-28T01:42:31;4.60;99.90
18777;DHT22;9517;51.174;4.160;2023-01-28T01:45:00;4.70;99.90
18777;DHT22;9517;51.174;4.160;2023-01-28T01:47:33;4.70;99.90
18777;DHT22;9517;51.174;4.160;2023-01-28T01:50:06;4.70;99.90
18777;DHT22;9517;51.174;4.160;2023-01-28T01:52:40;4.60;99.90
18777;DHT22;9517;51.174;4.160;2023-01-28T01:55:11;4.60;99.90
18777;DHT22;9517;51.174;4.160;2023-01-28T01:57:42;4.50;99.90
18777;DHT22;9517;51.174;4.160;2023-01-28T02:00:11;4.80;99.90
18777;DHT22;9517;51.174;4.160;2023-01-28T02:02:40;4.60;99.90
18777;DHT22;9517;51.174;4.160;2023-01-28T02:05:09;4.60;99.90
18777;DHT22;9517;51.174;4.160;2023-01-28T02:07:39;4.40;99.90
18777;DHT22;9517;51.174;4.160;2023-01-28T02:10:09;4.50;99.90
18777;DHT22;9517;51.174;4.160;2023-01-28T02:12:39;4.60;99.90
18777;DHT22;9517;51.174;4.160;2023-01-28T02:15:11;4.50;99.90
18777;DHT22;9517;51.174;4.160;2023-01-28T02:17:40;4.60;99.90
18777;DHT22;9517;51.174;4.160;2023-01-28T02:20:10;4.50;99.90
18777;DHT22;9517;51.174;4.160;2023-01-28T02:23:06;4.70;99.90
18777;DHT22;9517;51.174;4.160;2023-01-28T02:26:09;4.80;99.90
18777;DHT22;9517;51.174;4.160;2023-01-28T02:28:47;4.80;99.90
18777;DHT22;9517;51.174;4.160;2023-01-28T02:31:22;4.70;99.90
18777;DHT22;9517;51.174;4.160;2023-01-28T02:33:55;4.70;99.90
18777;DHT22;9517;51.174;4.160;2023-01-28T02:36:29;4.80;99.90
18777;DHT22;9517;51.174;4.160;2023-01-28T02:39:02;4.70;99.90
18777;DHT22;9517;51.174;4.160;2023-01-28T02:41:36;4.70;99.90
18777;DHT22;9517;51.174;4.160;2023-01-28T02:44:07;4.80;99.90
18777;DHT22;9517;51.174;4.160;2023-01-28T02:46:35;4.70;99.90
18777;DHT22;9517;51.174;4.160;2023-01-28T02:49:24;4.70;99.90
18777;DHT22;9517;51.174;4.160;2023-01-28T02:52:21;4.60;99.90
18777;DHT22;9517;51.174;4.160;2023-01-28T02:55:08;4.60;99.90
18777;DHT22;9517;51.174;4.160;2023-01-28T02:57:45;4.30;99.90
18777;DHT22;9517;51.174;4.160;2023-01-28T03:00:18;4.20;99.90
18777;DHT22;9517;51.174;4.160;2023-01-28T03:02:51;4.40;99.90
18777;DHT22;9517;51.174;4.160;2023-01-28T03:05:24;4.30;99.90
18777;DHT22;9517;51.174;4.160;2023-01-28T03:07:52;4.20;99.90
18777;DHT22;9517;51.174;4.160;2023-01-28T03:10:25;4.30;99.90
18777;DHT22;9517;51.174;4.160;2023-01-28T03:12:55;4.40;99.90
18777;DHT22;9517;51.174;4.160;2023-01-28T03:15:45;4.40;99.90
18777;DHT22;9517;51.174;4.160;2023-01-28T03:18:36;4.50;99.90
18777;DHT22;9517;51.174;4.160;2023-01-28T03:21:26;4.60;99.90
18777;DHT22;9517;51.174;4.160;2023-01-28T03:24:16;4.50;99.90
18777;DHT22;9517;51.174;4.160;2023-01-28T03:27:08;4.50;99.90
18777;DHT22;9517;51.174;4.160;2023-01-28T03:29:57;4.40;99.90
18777;DHT22;9517;51.174;4.160;2023-01-28T03:32:44;4.40;99.90
18777;DHT22;9517;51.174;4.160;2023-01-28T03:35:32;4.40;99.90
18777;DHT22;9517;51.174;4.160;2023-01-28T03:38:18;4.50;99.90
18777;DHT22;9517;51.174;4.160;2023-01-28T03:40:49;4.60;99.90
18777;DHT22;9517;51.174;4.160;2023-01-28T03:43:17;4.50;99.90
18777;DHT22;9517;51.174;4.160;2023-01-28T03:45:44;4.70;99.90
18777;DHT22;9517;51.174;4.160;2023-01-28T03:48:17;4.50;99.90
18777;DHT22;9517;51.174;4.160;2023-01-28T03:50:44;4.40;99.90
18777;DHT22;9517;51.174;4.160;2023-01-28T03:53:13;4.40;99.90
18777;DHT22;9517;51.174;4.160;2023-01-28T03:55:40;4.40;99.90
18777;DHT22;9517;51.174;4.160;2023-01-28T03:58:09;4.50;99.90
18777;DHT22;9517;51.174;4.160;2023-01-28T04:00:36;4.50;99.90
18777;DHT22;9517;51.174;4.160;2023-01-28T04:03:06;4.50;99.90
18777;DHT22;9517;51.174;4.160;2023-01-28T04:05:46;4.40;99.90
18777;DHT22;9517;51.174;4.160;2023-01-28T04:08:13;4.40;99.90
18777;DHT22;9517;51.174;4.160;2023-01-28T04:10:41;4.30;99.90
18777;DHT22;9517;51.174;4.160;2023-01-28T04:13:08;4.40;99.90
18777;DHT22;9517;51.174;4.160;2023-01-28T04:15:35;4.50;99.90
18777;DHT22;9517;51.174;4.160;2023-01-28T04:18:04;4.70;99.90
18777;DHT22;9517;51.174;4.160;2023-01-28T04:20:31;4.60;99.90
18777;DHT22;9517;51.174;4.160;2023-01-28T04:23:00;4.60;99.90
18777;DHT22;9517;51.174;4.160;2023-01-28T04:25:29;4.60;99.90
18777;DHT22;9517;51.174;4.160;2023-01-28T04:27:56;4.50;99.90
18777;DHT22;9517;51.174;4.160;2023-01-28T04:30:24;4.40;99.90
18777;DHT22;9517;51.174;4.160;2023-01-28T04:32:51;4.30;99.90
18777;DHT22;9517;51.174;4.160;2023-01-28T04:35:18;4.20;99.90
18777;DHT22;9517;51.174;4.160;2023-01-28T04:37:46;4.30;99.90
18777;DHT22;9517;51.174;4.160;2023-01-28T04:40:15;4.40;99.90
18777;DHT22;9517;51.174;4.160;2023-01-28T04:42:42;4.30;99.90
18777;DHT22;9517;51.174;4.160;2023-01-28T04:45:22;4.30;99.90
18777;DHT22;9517;51.174;4.160;2023-01-28T04:47:49;4.30;99.90
18777;DHT22;9517;51.174;4.160;2023-01-28T04:50:16;4.30;99.90
18777;DHT22;9517;51.174;4.160;2023-01-28T04:52:43;4.50;99.90
18777;DHT22;9517;51.174;4.160;2023-01-28T04:55:11;4.30;99.90
18777;DHT22;9517;51.174;4.160;2023-01-28T04:57:39;4.30;99.90
18777;DHT22;9517;51.174;4.160;2023-01-28T05:00:08;4.30;99.90
18777;DHT22;9517;51.174;4.160;2023-01-28T05:02:35;4.20;99.90
18777;DHT22;9517;51.174;4.160;2023-01-28T05:05:03;4.30;99.90
18777;DHT22;9517;51.174;4.160;2023-01-28T05:07:33;4.10;99.90
18777;DHT22;9517;51.174;4.160;2023-01-28T05:10:00;4.30;99.90
18777;DHT22;9517;51.174;4.160;2023-01-28T05:12:27;4.20;99.90
18777;DHT22;9517;51.174;4.160;2023-01-28T05:14:59;4.30;99.90
18777;DHT22;9517;51.174;4.160;2023-01-28T05:17:26;4.20;99.90
18777;DHT22;9517;51.174;4.160;2023-01-28T05:19:53;4.30;99.90
18777;DHT22;9517;51.174;4.160;2023-01-28T05:22:20;4.20;99.90
18777;DHT22;9517;51.174;4.160;2023-01-28T05:24:48;4.20;99.90
18777;DHT22;9517;51.174;4.160;2023-01-28T05:27:16;4.20;99.90
18777;DHT22;9517;51.174;4.160;2023-01-28T05:29:43;4.10;99.90
18777;DHT22;9517;51.174;4.160;2023-01-28T05:32:13;4.10;99.90
18777;DHT22;9517;51.174;4.160;2023-01-28T05:34:40;4.20;99.90
18777;DHT22;9517;51.174;4.160;2023-01-28T05:37:08;4.10;99.90
18777;DHT22;9517;51.174;4.160;2023-01-28T05:39:35;4.10;99.90
18777;DHT22;9517;51.174;4.160;2023-01-28T05:42:02;4.30;99.90
18777;DHT22;9517;51.174;4.160;2023-01-28T05:44:29;4.30;99.90
18777;DHT22;9517;51.174;4.160;2023-01-28T05:46:58;4.20;99.90
18777;DHT22;9517;51.174;4.160;2023-01-28T05:49:26;4.30;99.90
18777;DHT22;9517;51.174;4.160;2023-01-28T05:51:54;4.30;99.90
18777;DHT22;9517;51.174;4.160;2023-01-28T05:54:22;4.10;99.90
18777;DHT22;9517;51.174;4.160;2023-01-28T05:56:50;4.10;99.90
18777;DHT22;9517;51.174;4.160;2023-01-28T05:59:17;4.10;99.90
18777;DHT22;9517;51.174;4.160;2023-01-28T06:01:44;4.30;99.90
18777;DHT22;9517;51.174;4.160;2023-01-28T06:04:13;4.30;99.90
18777;DHT22;9517;51.174;4.160;2023-01-28T06:06:44;4.30;99.90
18777;DHT22;9517;51.174;4.160;2023-01-28T06:09:11;4.10;99.90
18777;DHT22;9517;51.174;4.160;2023-01-28T06:11:41;3.90;99.90
18777;DHT22;9517;51.174;4.160;2023-01-28T06:14:09;3.90;99.90
18777;DHT22;9517;51.174;4.160;2023-01-28T06:16:36;3.80;99.90
18777;DHT22;9517;51.174;4.160;2023-01-28T06:19:03;3.80;99.90
18777;DHT22;9517;51.174;4.160;2023-01-28T06:21:30;3.90;99.90
18777;DHT22;9517;51.174;4.160;2023-01-28T06:23:59;3.90;99.90
18777;DHT22;9517;51.174;4.160;2023-01-28T06:26:26;4.00;99.90
18777;DHT22;9517;51.174;4.160;2023-01-28T06:28:53;3.80;99.90
18777;DHT22;9517;51.174;4.160;2023-01-28T06:31:21;3.90;99.90
18777;DHT22;9517;51.174;4.160;2023-01-28T06:33:48;4.00;99.90
18777;DHT22;9517;51.174;4.160;2023-01-28T06:36:15;4.00;99.90
18777;DHT22;9517;51.174;4.160;2023-01-28T06:38:43;3.90;99.90
18777;DHT22;9517;51.174;4.160;2023-01-28T06:41:11;3.80;99.90
18777;DHT22;9517;51.174;4.160;2023-01-28T06:43:38;3.70;99.90
18777;DHT22;9517;51.174;4.160;2023-01-28T06:46:06;3.70;99.90
18777;DHT22;9517;51.174;4.160;2023-01-28T06:48:33;3.70;99.90
18777;DHT22;9517;51.174;4.160;2023-01-28T06:51:00;3.80;99.90
18777;DHT22;9517;51.174;4.160;2023-01-28T06:53:27;3.60;99.90
18777;DHT22;9517;51.174;4.160;2023-01-28T06:55:56;3.70;99.90
18777;DHT22;9517;51.174;4.160;2023-01-28T06:58:28;3.60;99.90
18777;DHT22;9517;51.174;4.160;2023-01-28T07:00:56;3.70;99.90
18777;DHT22;9517;51.174;4.160;2023-01-28T07:03:23;3.70;99.90
18777;DHT22;9517;51.174;4.160;2023-01-28T07:05:50;3.90;99.90
18777;DHT22;9517;51.174;4.160;2023-01-28T07:08:17;3.90;99.90
18777;DHT22;9517;51.174;4.160;2023-01-28T07:10:44;3.80;99.90
18777;DHT22;9517;51.174;4.160;2023-01-28T07:13:12;3.90;99.90
18777;DHT22;9517;51.174;4.160;2023-01-28T07:15:40;3.80;99.90
18777;DHT22;9517;51.174;4.160;2023-01-28T07:18:08;3.70;99.90
18777;DHT22;9517;51.174;4.160;2023-01-28T07:20:35;3.80;99.90
18777;DHT22;9517;51.174;4.160;2023-01-28T07:23:06;3.80;99.90
18777;DHT22;9517;51.174;4.160;2023-01-28T07:25:33;4.00;99.90
18777;DHT22;9517;51.174;4.160;2023-01-28T07:28:00;3.90;99.90
18777;DHT22;9517;51.174;4.160;2023-01-28T07:30:29;3.80;99.90
18777;DHT22;9517;51.174;4.160;2023-01-28T07:32:59;3.80;99.90
18777;DHT22;9517;51.174;4.160;2023-01-28T07:35:26;3.70;99.90
18777;DHT22;9517;51.174;4.160;2023-01-28T07:37:56;3.70;99.90
18777;DHT22;9517;51.174;4.160;2023-01-28T07:40:26;3.80;99.90
18777;DHT22;9517;51.174;4.160;2023-01-28T07:42:53;3.60;99.90
18777;DHT22;9517;51.174;4.160;2023-01-28T07:45:21;3.70;99.90
18777;DHT22;9517;51.174;4.160;2023-01-28T07:47:54;3.90;99.90
18777;DHT22;9517;51.174;4.160;2023-01-28T07:50:23;4.00;99.90
18777;DHT22;9517;51.174;4.160;2023-01-28T07:52:51;3.90;99.90
18777;DHT22;9517;51.174;4.160;2023-01-28T07:55:18;3.90;99.90
18777;DHT22;9517;51.174;4.160;2023-01-28T07:57:49;3.90;99.90
18777;DHT22;9517;51.174;4.160;2023-01-28T08:00:18;4.10;99.90
18777;DHT22;9517;51.174;4.160;2023-01-28T08:02:45;4.10;99.90
18777;DHT22;9517;51.174;4.160;2023-01-28T08:05:17;4.00;99.90
18777;DHT22;9517;51.174;4.160;2023-01-28T08:07:47;4.10;99.90
18777;DHT22;9517;51.174;4.160;2023-01-28T08:10:16;4.10;99.90
18777;DHT22;9517;51.174;4.160;2023-01-28T08:15:31;4.30;99.90
18777;DHT22;9517;51.174;4.160;2023-01-28T08:17:59;4.30;99.90
18777;DHT22;9517;51.174;4.160;2023-01-28T08:20:28;4.30;99.90
18777;DHT22;9517;51.174;4.160;2023-01-28T08:23:06;4.30;99.90
18777;DHT22;9517;51.174;4.160;2023-01-28T08:25:36;4.40;99.90
18777;DHT22;9517;51.174;4.160;2023-01-28T08:28:04;4.40;99.90
18777;DHT22;9517;51.174;4.160;2023-01-28T08:30:32;4.50;99.90
18777;DHT22;9517;51.174;4.160;2023-01-28T08:33:00;4.40;99.90
18777;DHT22;9517;51.174;4.160;2023-01-28T08:35:28;4.30;99.90
18777;DHT22;9517;51.174;4.160;2023-01-28T08:37:57;4.20;99.90
18777;DHT22;9517;51.174;4.160;2023-01-28T08:40:26;4.30;99.90
18777;DHT22;9517;51.174;4.160;2023-01-28T08:42:54;4.40;99.90
18777;DHT22;9517;51.174;4.160;2023-01-28T08:45:38;4.40;99.90
18777;DHT22;9517;51.174;4.160;2023-01-28T08:48:09;4.40;99.90
18777;DHT22;9517;51.174;4.160;2023-01-28T08:50:38;4.50;99.90
18777;DHT22;9517;51.174;4.160;2023-01-28T08:53:08;4.60;99.90
18777;DHT22;9517;51.174;4.160;2023-01-28T08:55:37;4.50;99.90
18777;DHT22;9517;51.174;4.160;2023-01-28T08:58:06;4.40;99.90
18777;DHT22;9517;51.174;4.160;2023-01-28T09:00:34;4.20;99.90
18777;DHT22;9517;51.174;4.160;2023-01-28T09:03:02;4.50;99.90
18777;DHT22;9517;51.174;4.160;2023-01-28T09:05:30;4.50;99.90
18777;DHT22;9517;51.174;4.160;2023-01-28T09:08:00;4.50;99.90
18777;DHT22;9517;51.174;4.160;2023-01-28T09:10:30;4.60;99.90
18777;DHT22;9517;51.174;4.160;2023-01-28T09:13:01;4.40;99.90
18777;DHT22;9517;51.174;4.160;2023-01-28T09:15:30;4.50;99.90
18777;DHT22;9517;51.174;4.160;2023-01-28T09:17:57;4.60;99.90
18777;DHT22;9517;51.174;4.160;2023-01-28T09:20:34;4.60;99.90
18777;DHT22;9517;51.174;4.160;2023-01-28T09:23:11;4.80;99.90
18777;DHT22;9517;51.174;4.160;2023-01-28T09:25:38;4.80;99.90
18777;DHT22;9517;51.174;4.160;2023-01-28T09:28:07;4.80;99.90
18777;DHT22;9517;51.174;4.160;2023-01-28T09:30:34;4.80;99.90
18777;DHT22;9517;51.174;4.160;2023-01-28T09:33:02;4.70;99.90
18777;DHT22;9517;51.174;4.160;2023-01-28T09:35:29;5.10;99.90
18777;DHT22;9517;51.174;4.160;2023-01-28T09:37:57;5.00;99.90
18777;DHT22;9517;51.174;4.160;2023-01-28T09:40:31;5.10;99.90
18777;DHT22;9517;51.174;4.160;2023-01-28T09:43:18;5.00;99.90
18777;DHT22;9517;51.174;4.160;2023-01-28T09:45:52;5.00;99.90
18777;DHT22;9517;51.174;4.160;2023-01-28T09:48:23;4.80;99.90
18777;DHT22;9517;51.174;4.160;2023-01-28T09:50:55;4.80;99.90
18777;DHT22;9517;51.174;4.160;2023-01-28T09:53:25;4.90;99.90
18777;DHT22;9517;51.174;4.160;2023-01-28T09:55:56;5.10;99.90
18777;DHT22;9517;51.174;4.160;2023-01-28T09:58:31;4.90;99.90
18777;DHT22;9517;51.174;4.160;2023-01-28T10:01:02;4.70;99.90
18777;DHT22;9517;51.174;4.160;2023-01-28T10:03:46;4.90;99.90
18777;DHT22;9517;51.174;4.160;2023-01-28T10:06:22;5.20;99.90
18777;DHT22;9517;51.174;4.160;2023-01-28T10:09:20;5.10;99.90
18777;DHT22;9517;51.174;4.160;2023-01-28T10:12:09;5.50;99.90
18777;DHT22;9517;51.174;4.160;2023-01-28T10:14:53;5.70;99.90
18777;DHT22;9517;51.174;4.160;2023-01-28T10:17:24;6.20;99.90
18777;DHT22;9517;51.174;4.160;2023-01-28T10:19:55;6.10;99.90
18777;DHT22;9517;51.174;4.160;2023-01-28T10:22:29;6.30;99.90
18777;DHT22;9517;51.174;4.160;2023-01-28T10:25:00;6.30;99.90
18777;DHT22;9517;51.174;4.160;2023-01-28T10:27:32;6.20;99.90
18777;DHT22;9517;51.174;4.160;2023-01-28T10:30:16;6.30;99.90
18777;DHT22;9517;51.174;4.160;2023-01-28T10:32:47;6.40;99.90
18777;DHT22;9517;51.174;4.160;2023-01-28T10:35:17;6.20;99.90
18777;DHT22;9517;51.174;4.160;2023-01-28T10:37:44;6.30;99.90
18777;DHT22;9517;51.174;4.160;2023-01-28T10:40:14;6.20;99.90
18777;DHT22;9517;51.174;4.160;2023-01-28T10:42:42;6.20;99.90
18777;DHT22;9517;51.174;4.160;2023-01-28T10:45:17;6.40;99.90
18777;DHT22;9517;51.174;4.160;2023-01-28T10:47:49;6.40;99.90
18777;DHT22;9517;51.174;4.160;2023-01-28T10:50:22;6.40;99.90
18777;DHT22;9517;51.174;4.160;2023-01-28T10:52:52;6.60;99.90
18777;DHT22;9517;51.174;4.160;2023-01-28T10:55:20;6.60;99.90
18777;DHT22;9517;51.174;4.160;2023-01-28T10:57:48;6.50;99.90
18777;DHT22;9517;51.174;4.160;2023-01-28T11:00:25;6.30;99.90
18777;DHT22;9517;51.174;4.160;2023-01-28T11:02:53;6.20;99.90
18777;DHT22;9517;51.174;4.160;2023-01-28T11:05:22;6.10;99.90
18777;DHT22;9517;51.174;4.160;2023-01-28T11:08:04;5.70;99.90
18777;DHT22;9517;51.174;4.160;2023-01-28T11:10:33;5.80;99.90
18777;DHT22;9517;51.174;4.160;2023-01-28T11:13:02;5.90;99.90
18777;DHT22;9517;51.174;4.160;2023-01-28T11:15:32;5.90;99.90
18777;DHT22;9517;51.174;4.160;2023-01-28T11:18:01;6.00;99.90
18777;DHT22;9517;51.174;4.160;2023-01-28T11:20:37;5.90;99.90
18777;DHT22;9517;51.174;4.160;2023-01-28T11:23:14;6.00;99.90
18777;DHT22;9517;51.174;4.160;2023-01-28T11:25:43;6.00;99.90
18777;DHT22;9517;51.174;4.160;2023-01-28T11:28:16;6.10;99.90
18777;DHT22;9517;51.174;4.160;2023-01-28T11:30:50;6.10;99.90
18777;DHT22;9517;51.174;4.160;2023-01-28T11:33:21;6.20;99.90
18777;DHT22;9517;51.174;4.160;2023-01-28T11:35:52;6.20;99.90
18777;DHT22;9517;51.174;4.160;2023-01-28T11:38:22;6.50;99.90
18777;DHT22;9517;51.174;4.160;2023-01-28T11:40:55;6.70;99.90
18777;DHT22;9517;51.174;4.160;2023-01-28T11:43:24;6.70;99.90
18777;DHT22;9517;51.174;4.160;2023-01-28T11:46:00;6.90;99.90
18777;DHT22;9517;51.174;4.160;2023-01-28T11:48:39;6.90;99.90
18777;DHT22;9517;51.174;4.160;2023-01-28T11:51:20;7.00;99.90
18777;DHT22;9517;51.174;4.160;2023-01-28T11:54:19;8.60;99.90
18777;DHT22;9517;51.174;4.160;2023-01-28T11:57:24;10.60;99.90
18777;DHT22;9517;51.174;4.160;2023-01-28T12:14:36;16.10;99.90
18777;DHT22;9517;51.174;4.160;2023-01-28T12:20:32;17.40;99.90
18777;DHT22;9517;51.174;4.160;2023-01-28T12:23:28;18.70;98.00
18777;DHT22;9517;51.174;4.160;2023-01-28T12:26:05;18.20;97.20
18777;DHT22;9517;51.174;4.160;2023-01-28T12:28:55;17.50;99.80
18777;DHT22;9517;51.174;4.160;2023-01-28T12:37:46;17.40;95.80
18777;DHT22;9517;51.174;4.160;2023-01-28T12:40:47;18.00;95.40
18777;DHT22;9517;51.174;4.160;2023-01-28T12:43:19;17.90;94.00
18777;DHT22;9517;51.174;4.160;2023-01-28T12:45:52;17.20;95.20
18777;DHT22;9517;51.174;4.160;2023-01-28T12:48:27;17.00;96.40
18777;DHT22;9517;51.174;4.160;2023-01-28T12:51:07;17.40;96.20
18777;DHT22;9517;51.174;4.160;2023-01-28T12:53:44;17.30;96.30
18777;DHT22;9517;51.174;4.160;2023-01-28T12:56:30;17.50;94.70
18777;DHT22;9517;51.174;4.160;2023-01-28T12:59:12;16.70;95.00
18777;DHT22;9517;51.174;4.160;2023-01-28T13:01:54;14.90;96.60
18777;DHT22;9517;51.174;4.160;2023-01-28T13:07:23;15.00;98.40
18777;DHT22;9517;51.174;4.160;2023-01-28T13:09:57;15.40;99.90
18777;DHT22;9517;51.174;4.160;2023-01-28T13:12:32;15.00;99.00
18777;DHT22;9517;51.174;4.160;2023-01-28T13:15:04;15.20;98.90
18777;DHT22;9517;51.174;4.160;2023-01-28T13:17:32;16.10;98.30
18777;DHT22;9517;51.174;4.160;2023-01-28T13:20:13;14.90;97.80
18777;DHT22;9517;51.174;4.160;2023-01-28T13:22:43;13.70;99.90
18777;DHT22;9517;51.174;4.160;2023-01-28T13:25:19;12.00;99.90
18777;DHT22;9517;51.174;4.160;2023-01-28T13:27:57;11.10;99.90
18777;DHT22;9517;51.174;4.160;2023-01-28T13:30:30;10.30;99.90
18777;DHT22;9517;51.174;4.160;2023-01-28T13:32:59;9.50;99.90
18777;DHT22;9517;51.174;4.160;2023-01-28T13:35:31;8.90;99.90
18777;DHT22;9517;51.174;4.160;2023-01-28T13:37:59;8.70;99.90
18777;DHT22;9517;51.174;4.160;2023-01-28T13:40:35;8.30;99.90
18777;DHT22;9517;51.174;4.160;2023-01-28T13:43:22;8.30;99.90
18777;DHT22;9517;51.174;4.160;2023-01-28T13:45:55;8.20;99.90
18777;DHT22;9517;51.174;4.160;2023-01-28T13:48:29;8.00;99.90
18777;DHT22;9517;51.174;4.160;2023-01-28T13:50:59;8.10;99.90
18777;DHT22;9517;51.174;4.160;2023-01-28T13:53:38;7.90;99.90
18777;DHT22;9517;51.174;4.160;2023-01-28T13:56:15;8.10;99.90
18777;DHT22;9517;51.174;4.160;2023-01-28T14:02:19;10.00;99.90
18777;DHT22;9517;51.174;4.160;2023-01-28T14:08:27;9.90;99.90
18777;DHT22;9517;51.174;4.160;2023-01-28T14:11:21;11.50;99.90
18777;DHT22;9517;51.174;4.160;2023-01-28T14:29:24;14.60;99.90
18777;DHT22;9517;51.174;4.160;2023-01-28T14:31:54;14.40;99.90
18777;DHT22;9517;51.174;4.160;2023-01-28T14:34:27;13.80;99.90
18777;DHT22;9517;51.174;4.160;2023-01-28T14:36:57;14.50;99.90
18777;DHT22;9517;51.174;4.160;2023-01-28T14:39:28;13.50;99.90
18777;DHT22;9517;51.174;4.160;2023-01-28T14:42:01;13.70;99.90
18777;DHT22;9517;51.174;4.160;2023-01-28T14:44:32;13.20;99.90
18777;DHT22;9517;51.174;4.160;2023-01-28T14:47:17;13.20;99.90
18777;DHT22;9517;51.174;4.160;2023-01-28T14:50:00;12.50;99.90
18777;DHT22;9517;51.174;4.160;2023-01-28T14:52:53;12.30;99.90
18777;DHT22;9517;51.174;4.160;2023-01-28T14:55:33;12.00;99.90
18777;DHT22;9517;51.174;4.160;2023-01-28T14:58:08;11.60;99.90
18777;DHT22;9517;51.174;4.160;2023-01-28T15:00:40;10.90;99.90
18777;DHT22;9517;51.174;4.160;2023-01-28T15:03:10;10.20;99.90
18777;DHT22;9517;51.174;4.160;2023-01-28T15:05:43;9.90;99.90
18777;DHT22;9517;51.174;4.160;2023-01-28T15:08:19;9.90;99.90
18777;DHT22;9517;51.174;4.160;2023-01-28T15:10:48;9.10;99.90
18777;DHT22;9517;51.174;4.160;2023-01-28T15:13:31;8.60;99.90
18777;DHT22;9517;51.174;4.160;2023-01-28T15:16:19;8.60;99.90
18777;DHT22;9517;51.174;4.160;2023-01-28T15:18:48;8.30;99.90
18777;DHT22;9517;51.174;4.160;2023-01-28T15:26:52;7.30;99.90
18777;DHT22;9517;51.174;4.160;2023-01-28T15:30:43;7.10;99.90
18777;DHT22;9517;51.174;4.160;2023-01-28T15:33:13;7.00;99.90
18777;DHT22;9517;51.174;4.160;2023-01-28T15:35:46;7.00;99.90
18777;DHT22;9517;51.174;4.160;2023-01-28T15:38:13;7.00;99.90
18777;DHT22;9517;51.174;4.160;2023-01-28T15:40:44;6.90;99.90
18777;DHT22;9517;51.174;4.160;2023-01-28T15:43:17;6.80;99.90
18777;DHT22;9517;51.174;4.160;2023-01-28T15:45:46;6.60;99.90
18777;DHT22;9517;51.174;4.160;2023-01-28T15:48:15;6.60;99.90
18777;DHT22;9517;51.174;4.160;2023-01-28T15:51:03;6.60;99.90
18777;DHT22;9517;51.174;4.160;2023-01-28T15:56:06;6.50;99.90
18777;DHT22;9517;51.174;4.160;2023-01-28T15:58:43;6.30;99.90
18777;DHT22;9517;51.174;4.160;2023-01-28T16:01:14;6.20;99.90
18777;DHT22;9517;51.174;4.160;2023-01-28T16:04:03;6.20;99.90
18777;DHT22;9517;51.174;4.160;2023-01-28T16:06:56;6.20;99.90
18777;DHT22;9517;51.174;4.160;2023-01-28T16:09:39;6.10;99.90
18777;DHT22;9517;51.174;4.160;2023-01-28T16:12:28;6.10;99.90
18777;DHT22;9517;51.174;4.160;2023-01-28T16:15:01;6.00;99.90
18777;DHT22;9517;51.174;4.160;2023-01-28T16:17:52;5.80;99.90
18777;DHT22;9517;51.174;4.160;2023-01-28T16:20:41;5.80;99.90
18777;DHT22;9517;51.174;4.160;2023-01-28T16:26:36;6.10;99.90
18777;DHT22;9517;51.174;4.160;2023-01-28T16:29:14;6.10;99.90
18777;DHT22;9517;51.174;4.160;2023-01-28T16:31:42;5.80;99.90
18777;DHT22;9517;51.174;4.160;2023-01-28T16:34:10;5.70;99.90
18777;DHT22;9517;51.174;4.160;2023-01-28T16:36:39;5.80;99.90
18777;DHT22;9517;51.174;4.160;2023-01-28T16:39:18;5.90;99.90
18777;DHT22;9517;51.174;4.160;2023-01-28T16:41:59;5.90;99.90
18777;DHT22;9517;51.174;4.160;2023-01-28T16:47:54;5.70;99.90
18777;DHT22;9517;51.174;4.160;2023-01-28T16:50:45;5.70;99.90
18777;DHT22;9517;51.174;4.160;2023-01-28T16:53:34;5.50;99.90
18777;DHT22;9517;51.174;4.160;2023-01-28T16:56:04;5.50;99.90
18777;DHT22;9517;51.174;4.160;2023-01-28T16:58:31;5.40;99.90
18777;DHT22;9517;51.174;4.160;2023-01-28T17:01:04;5.30;99.90
18777;DHT22;9517;51.174;4.160;2023-01-28T17:03:31;5.30;99.90
18777;DHT22;9517;51.174;4.160;2023-01-28T17:05:58;5.20;99.90
18777;DHT22;9517;51.174;4.160;2023-01-28T17:08:27;5.10;99.90
18777;DHT22;9517;51.174;4.160;2023-01-28T17:10:54;5.10;99.90
18777;DHT22;9517;51.174;4.160;2023-01-28T17:13:22;5.10;99.90
18777;DHT22;9517;51.174;4.160;2023-01-28T17:15:49;5.00;99.90
18777;DHT22;9517;51.174;4.160;2023-01-28T17:18:18;4.90;99.90
18777;DHT22;9517;51.174;4.160;2023-01-28T17:20:46;4.90;99.90
18777;DHT22;9517;51.174;4.160;2023-01-28T17:23:15;4.80;99.90
18777;DHT22;9517;51.174;4.160;2023-01-28T17:25:49;4.50;99.90
18777;DHT22;9517;51.174;4.160;2023-01-28T17:28:17;4.40;99.90
18777;DHT22;9517;51.174;4.160;2023-01-28T17:30:44;4.30;99.90
18777;DHT22;9517;51.174;4.160;2023-01-28T17:33:11;4.20;99.90
18777;DHT22;9517;51.174;4.160;2023-01-28T17:35:45;4.00;99.90
18777;DHT22;9517;51.174;4.160;2023-01-28T17:38:13;3.90;99.90
18777;DHT22;9517;51.174;4.160;2023-01-28T17:40:40;3.80;99.90